Time;durP1;ratioP1;P1;durP2;ratioP2;P2;SDS_P1;SDS_P2;PMS_P1;PMS_P2;Temp;Humidity;BMP_temperature;BMP_pressure;BME280_temperature;BME280_humidity;BME280_pressure;Samples;Min_cycle;Max_cycle;Signal;HPM_P1;HPM_P2
2022/02/03 14:50:34;;;;;;;12.35;6.88;;;13.70;94.20;;;;;;3409846;29;20056;-79
2022/02/03 14:53:08;;;;;;;16.20;4.25;;;13.70;94.60;;;;;;4878376;29;20025;-79
2022/02/03 14:58:27;;;;;;;8.82;3.03;;;13.60;94.90;;;;;;4878496;29;20116;-78
2022/02/03 15:00:54;;;;;;;10.82;3.17;;;13.50;94.70;;;;;;4877588;29;20119;-78
2022/02/03 15:03:23;;;;;;;15.05;3.70;;;13.50;94.50;;;;;;4878212;29;20029;-77
2022/02/03 15:05:53;;;;;;;9.38;3.45;;;13.50;94.50;;;;;;4877734;29;20077;-77
2022/02/03 15:08:22;;;;;;;6.75;2.85;;;13.50;94.30;;;;;;4878816;29;20494;-77
2022/02/03 15:11:03;;;;;;;4.85;2.70;;;13.50;94.40;;;;;;4878413;29;20036;-80
2022/02/03 15:13:41;;;;;;;6.78;2.60;;;13.50;94.60;;;;;;4878423;29;20076;-78
2022/02/03 15:16:08;;;;;;;13.05;6.60;;;13.40;94.90;;;;;;4877106;29;20032;-79
2022/02/03 15:18:33;;;;;;;13.77;5.13;;;13.40;94.60;;;;;;4873038;29;20025;-80
2022/02/03 15:20:59;;;;;;;11.43;4.68;;;13.40;94.50;;;;;;4861643;29;20109;-80
2022/02/03 15:23:26;;;;;;;8.10;4.97;;;13.30;94.20;;;;;;4859449;29;20036;-79
2022/02/03 15:25:52;;;;;;;7.22;3.25;;;13.20;93.90;;;;;;4859546;29;20042;-81
2022/02/03 15:28:18;;;;;;;11.73;3.78;;;13.20;93.50;;;;;;4859396;29;20065;-81
2022/02/03 15:30:44;;;;;;;6.57;3.83;;;13.10;93.50;;;;;;4858829;29;20031;-80
2022/02/03 15:33:11;;;;;;;6.28;3.20;;;13.10;93.60;;;;;;4859221;29;20030;-79
2022/02/03 15:35:47;;;;;;;6.97;4.45;;;13.00;93.60;;;;;;4859857;29;20029;-79
2022/02/03 15:38:16;;;;;;;6.72;5.10;;;13.00;94.20;;;;;;4858988;29;20030;-80
2022/02/03 15:40:43;;;;;;;7.00;4.50;;;12.90;94.50;;;;;;4859132;29;20546;-81
2022/02/03 15:43:22;;;;;;;8.88;4.20;;;12.90;94.80;;;;;;4859888;29;20048;-79
2022/02/03 15:45:52;;;;;;;16.35;4.05;;;12.90;95.00;;;;;;4859758;29;20017;-79
2022/02/03 15:48:30;;;;;;;6.65;3.40;;;12.80;95.30;;;;;;4860520;29;20032;-78
2022/02/03 16:13:20;;;;;;;11.52;4.20;;;12.60;96.70;;;;;;4866012;29;20052;-78
2022/02/03 16:17:30;;;;;;;26.67;4.35;;;12.30;97.20;;;;;;4862044;29;20446;-76
2022/02/03 16:20:03;;;;;;;12.80;3.75;;;12.20;97.40;;;;;;4867656;29;20041;-76
2022/02/03 16:51:05;;;;;;;50.03;16.42;;;11.80;99.90;;;;;;4879766;29;20112;-76
2022/02/03 16:53:05;;;;;;;42.45;14.60;;;11.70;99.90;;;;;;4881443;29;20067;-76
2022/02/03 16:55:35;;;;;;;35.17;14.07;;;11.70;99.90;;;;;;4888903;29;20461;-77
2022/02/03 16:58:04;;;;;;;48.97;16.63;;;11.70;99.90;;;;;;4893795;29;20025;-77
2022/02/03 17:00:30;;;;;;;26.45;12.18;;;11.60;99.90;;;;;;4892703;29;20132;-76
2022/02/03 17:02:55;;;;;;;30.63;14.30;;;11.50;99.90;;;;;;4886355;29;20456;-76
2022/02/03 17:05:22;;;;;;;48.08;15.27;;;11.30;99.90;;;;;;4880796;29;20040;-77
2022/02/03 17:07:48;;;;;;;36.88;12.55;;;11.20;99.90;;;;;;4879972;29;20478;-77
2022/02/03 17:10:13;;;;;;;52.10;23.85;;;11.20;99.90;;;;;;4879352;29;20037;-76
2022/02/03 17:12:39;;;;;;;46.25;14.48;;;11.20;99.90;;;;;;4881822;29;20033;-76
2022/02/03 17:15:06;;;;;;;32.78;9.73;;;11.10;99.90;;;;;;4879885;29;20033;-76
2022/02/03 17:17:32;;;;;;;30.10;9.98;;;11.10;99.90;;;;;;4882454;29;20029;-79
2022/02/03 17:19:57;;;;;;;54.88;10.43;;;11.10;99.90;;;;;;4880551;29;20037;-78
2022/02/03 17:22:31;;;;;;;53.03;11.95;;;11.10;99.90;;;;;;4881585;29;20025;-77
2022/02/03 17:25:05;;;;;;;40.35;10.75;;;11.10;99.90;;;;;;4881511;29;20029;-77
2022/02/03 17:27:46;;;;;;;28.67;11.80;;;11.10;99.90;;;;;;4881282;29;20039;-77
2022/02/03 18:02:56;;;;;;;36.63;19.13;;;10.70;99.90;;;;;;4879478;29;20173;-79
2022/02/03 18:08:47;;;;;;;35.58;15.63;;;10.60;99.90;;;;;;4897949;29;20063;-77
2022/02/03 18:32:52;;;;;;;36.90;17.30;;;9.90;99.90;;;;;;4898392;29;20495;-80
2022/02/03 18:51:10;;;;;;;42.47;21.05;;;9.80;99.90;;;;;;4896941;29;20060;-79
2022/02/03 18:53:42;;;;;;;39.58;18.95;;;9.80;99.90;;;;;;4891215;29;20478;-75
2022/02/03 19:13:10;;;;;;;35.40;16.88;;;9.30;99.90;;;;;;4896507;29;20021;-81
2022/02/03 19:15:05;;;;;;;33.60;17.20;;;9.40;99.90;;;;;;4886455;29;20040;-84
2022/02/03 20:08:42;;;;;;;37.90;16.83;;;9.00;99.90;;;;;;4892316;29;20021;-87
2022/02/03 20:11:10;;;;;;;36.90;15.07;;;9.00;99.90;;;;;;4896629;29;20017;-78
2022/02/03 20:13:36;;;;;;;31.73;13.75;;;9.00;99.90;;;;;;4890713;29;20025;-80
2022/02/03 20:16:02;;;;;;;43.97;16.45;;;9.00;99.90;;;;;;4887618;29;20101;-83
2022/02/03 20:18:28;;;;;;;37.90;18.17;;;9.00;99.90;;;;;;4894908;29;20032;-88
2022/02/03 20:20:53;;;;;;;36.40;17.05;;;9.00;99.90;;;;;;4893030;29;20477;-83
2022/02/03 20:23:22;;;;;;;44.33;18.83;;;9.00;99.90;;;;;;4894379;29;20056;-87
2022/02/03 20:25:56;;;;;;;42.40;20.08;;;9.10;99.90;;;;;;4889610;29;20024;-89
2022/02/03 20:28:22;;;;;;;51.42;21.50;;;9.10;99.90;;;;;;4895271;29;20048;-88
2022/02/03 20:30:48;;;;;;;43.53;18.70;;;9.10;99.90;;;;;;4890524;29;20028;-89
2022/02/03 20:33:15;;;;;;;54.92;20.35;;;9.10;99.90;;;;;;4890090;29;20433;-85
2022/02/03 20:35:41;;;;;;;36.85;17.08;;;9.10;99.90;;;;;;4871072;29;20072;-87
2022/02/03 20:38:07;;;;;;;30.90;15.98;;;9.10;99.90;;;;;;4887825;29;20021;-87
2022/02/03 20:40:34;;;;;;;36.70;16.38;;;9.10;99.90;;;;;;4890440;29;20032;-87
2022/02/03 20:43:00;;;;;;;33.00;16.17;;;9.00;99.90;;;;;;4887024;29;20073;-88
2022/02/03 20:45:26;;;;;;;28.05;14.85;;;8.90;99.90;;;;;;4889126;29;20048;-86
2022/02/03 20:47:52;;;;;;;40.65;15.50;;;8.80;99.90;;;;;;4891404;29;20020;-89
2022/02/03 20:50:20;;;;;;;24.40;13.63;;;8.80;99.90;;;;;;4875415;29;20489;-87
2022/02/03 20:52:47;;;;;;;31.15;13.15;;;8.70;99.90;;;;;;4890251;29;20378;-86
2022/02/03 20:55:13;;;;;;;31.50;12.07;;;8.80;99.90;;;;;;4895645;29;20113;-88
2022/02/03 20:57:38;;;;;;;31.50;13.00;;;8.70;99.90;;;;;;4893052;29;20507;-83
2022/02/03 21:00:21;;;;;;;27.55;12.55;;;8.70;99.90;;;;;;4871767;29;20052;-83
2022/02/03 21:05:44;;;;;;;31.90;11.68;;;8.50;99.90;;;;;;4876729;29;20037;-81
2022/02/03 21:08:11;;;;;;;27.38;12.68;;;8.50;99.90;;;;;;4898818;29;20025;-83
2022/02/03 21:10:37;;;;;;;26.40;11.98;;;8.50;99.90;;;;;;4887222;29;20033;-87
2022/02/03 21:13:02;;;;;;;23.23;11.93;;;8.50;99.90;;;;;;4880602;29;20021;-82
2022/02/03 21:15:38;;;;;;;26.40;12.45;;;8.50;99.90;;;;;;4878575;29;20044;-85
2022/02/03 21:18:09;;;;;;;33.55;12.02;;;8.50;99.90;;;;;;4895271;29;20033;-82
2022/02/03 21:20:37;;;;;;;27.83;13.23;;;8.50;99.90;;;;;;4898532;29;20031;-81
2022/02/03 21:23:04;;;;;;;28.10;12.85;;;8.50;99.90;;;;;;4899919;29;20029;-87
2022/02/03 21:25:37;;;;;;;32.97;13.88;;;8.50;99.90;;;;;;4900402;29;20050;-79
2022/02/03 21:28:11;;;;;;;28.35;12.43;;;8.40;99.90;;;;;;4897287;29;20063;-80
2022/02/03 21:30:39;;;;;;;25.45;11.52;;;8.50;99.90;;;;;;4897571;29;20110;-80
2022/02/03 21:33:11;;;;;;;26.10;12.48;;;8.40;99.90;;;;;;4897931;29;20029;-82
2022/02/03 21:35:42;;;;;;;22.63;12.80;;;8.50;99.90;;;;;;4895827;29;20462;-80
2022/02/03 21:38:08;;;;;;;34.78;13.18;;;8.40;99.90;;;;;;4896407;29;20025;-85
2022/02/03 21:40:34;;;;;;;26.25;13.10;;;8.40;99.90;;;;;;4898428;29;20042;-80
2022/02/03 21:43:01;;;;;;;29.42;12.85;;;8.40;99.90;;;;;;4898802;29;20080;-80
2022/02/03 21:45:27;;;;;;;32.95;12.45;;;8.40;99.90;;;;;;4897445;29;20108;-80
2022/02/03 21:47:53;;;;;;;24.38;12.18;;;8.40;99.90;;;;;;4896574;29;20394;-81
2022/02/03 21:50:20;;;;;;;29.38;12.00;;;8.40;99.90;;;;;;4897900;29;20048;-80
2022/02/03 21:52:49;;;;;;;30.63;12.45;;;8.40;99.90;;;;;;4881195;29;20119;-85
2022/02/03 21:55:16;;;;;;;27.73;12.10;;;8.40;99.90;;;;;;4894472;29;20037;-84
2022/02/03 21:57:45;;;;;;;32.55;11.90;;;8.50;99.90;;;;;;4896970;29;20472;-84
2022/02/03 22:00:13;;;;;;;22.52;10.40;;;8.50;99.90;;;;;;4900497;29;20738;-86
2022/02/03 22:02:38;;;;;;;32.90;12.45;;;8.50;99.90;;;;;;4898282;29;20031;-80
2022/02/03 22:05:07;;;;;;;30.33;11.55;;;8.40;99.90;;;;;;4897877;29;20025;-79
2022/02/03 22:07:33;;;;;;;30.48;12.18;;;8.40;99.90;;;;;;4897499;29;20031;-86
2022/02/03 22:09:59;;;;;;;22.98;11.95;;;8.40;99.90;;;;;;4898593;29;20035;-88
2022/02/03 22:12:24;;;;;;;24.52;11.45;;;8.30;99.90;;;;;;4898265;29;20024;-84
2022/02/03 22:14:50;;;;;;;22.10;10.68;;;8.30;99.90;;;;;;4897866;29;20051;-79
2022/02/03 22:17:16;;;;;;;24.77;10.38;;;8.30;99.90;;;;;;4897917;29;20107;-81
2022/02/03 22:19:48;;;;;;;24.23;11.05;;;8.30;99.90;;;;;;4897747;29;20040;-84
2022/02/03 22:46:13;;;;;;;26.08;10.90;;;8.10;99.90;;;;;;4895916;29;20028;-81
2022/02/03 22:48:39;;;;;;;24.90;11.07;;;8.10;99.90;;;;;;4884999;29;20501;-86
2022/02/03 22:51:06;;;;;;;23.35;11.50;;;8.10;99.90;;;;;;4882979;29;20044;-84
2022/02/03 22:53:37;;;;;;;28.58;10.63;;;8.20;99.90;;;;;;4895114;29;20029;-81
2022/02/03 22:56:08;;;;;;;23.10;11.55;;;8.20;99.90;;;;;;4897754;29;20033;-80
2022/02/03 23:01:19;;;;;;;21.10;9.73;;;8.20;99.90;;;;;;4893923;29;20039;-83
2022/02/03 23:03:45;;;;;;;25.77;11.48;;;8.20;99.90;;;;;;4896801;29;20052;-80
2022/02/03 23:06:12;;;;;;;18.05;9.18;;;8.20;99.90;;;;;;4890585;29;20053;-84
2022/02/03 23:09:04;;;;;;;20.27;7.35;;;8.30;99.90;;;;;;4880036;29;20079;-85
2022/02/03 23:11:48;;;;;;;22.33;8.98;;;8.30;99.90;;;;;;4879088;29;20061;-82
2022/02/03 23:22:12;;;;;;;14.85;6.78;;;8.50;99.90;;;;;;4879204;29;20036;-81
2022/02/03 23:24:46;;;;;;;15.95;7.15;;;8.50;99.90;;;;;;4879112;29;20135;-80
2022/02/03 23:27:38;;;;;;;17.92;6.10;;;8.60;99.90;;;;;;4879212;29;20118;-82
2022/02/03 23:30:03;;;;;;;18.42;9.68;;;8.60;99.90;;;;;;4878735;29;20037;-86
2022/02/03 23:32:30;;;;;;;23.77;8.45;;;8.60;99.90;;;;;;4878729;29;20017;-84
2022/02/03 23:35:09;;;;;;;17.17;8.38;;;8.60;99.90;;;;;;4878531;29;20053;-81
2022/02/03 23:37:38;;;;;;;21.95;8.55;;;8.60;99.90;;;;;;4862280;29;20071;-82
2022/02/03 23:40:12;;;;;;;23.30;9.02;;;8.60;99.90;;;;;;4878736;29;20431;-83
